sensor_id;sensor_type;location;lat;lon;timestamp;temperature;humidity
14061;DHT22;7105;43.616;1.434;2023-06-19T00:02:09;22.30;99.90
14061;DHT22;7105;43.616;1.434;2023-06-19T00:04:35;22.10;99.90
14061;DHT22;7105;43.616;1.434;2023-06-19T00:07:01;22.10;99.90
14061;DHT22;7105;43.616;1.434;2023-06-19T00:09:27;22.10;99.90
14061;DHT22;7105;43.616;1.434;2023-06-19T00:11:53;22.10;99.90
14061;DHT22;7105;43.616;1.434;2023-06-19T00:14:18;22.20;99.90
14061;DHT22;7105;43.616;1.434;2023-06-19T00:16:44;22.20;99.90
14061;DHT22;7105;43.616;1.434;2023-06-19T00:19:10;22.10;99.90
14061;DHT22;7105;43.616;1.434;2023-06-19T00:21:37;22.10;99.90
14061;DHT22;7105;43.616;1.434;2023-06-19T00:24:04;22.00;99.90
14061;DHT22;7105;43.616;1.434;2023-06-19T00:26:29;21.70;99.90
14061;DHT22;7105;43.616;1.434;2023-06-19T00:28:55;21.50;99.90
14061;DHT22;7105;43.616;1.434;2023-06-19T00:31:21;21.30;99.90
14061;DHT22;7105;43.616;1.434;2023-06-19T00:33:47;21.40;99.90
14061;DHT22;7105;43.616;1.434;2023-06-19T00:36:15;21.60;99.90
14061;DHT22;7105;43.616;1.434;2023-06-19T00:38:41;21.80;99.90
14061;DHT22;7105;43.616;1.434;2023-06-19T00:41:08;21.80;99.90
14061;DHT22;7105;43.616;1.434;2023-06-19T00:43:34;21.90;99.90
14061;DHT22;7105;43.616;1.434;2023-06-19T00:46:00;21.90;99.90
14061;DHT22;7105;43.616;1.434;2023-06-19T00:48:27;22.00;99.90
14061;DHT22;7105;43.616;1.434;2023-06-19T00:50:55;21.90;99.90
14061;DHT22;7105;43.616;1.434;2023-06-19T00:53:22;21.80;99.90
14061;DHT22;7105;43.616;1.434;2023-06-19T00:55:48;21.80;99.90
14061;DHT22;7105;43.616;1.434;2023-06-19T00:58:15;21.90;99.90
14061;DHT22;7105;43.616;1.434;2023-06-19T01:00:41;21.80;99.90
14061;DHT22;7105;43.616;1.434;2023-06-19T01:03:06;21.60;99.90
14061;DHT22;7105;43.616;1.434;2023-06-19T01:05:32;21.50;99.90
14061;DHT22;7105;43.616;1.434;2023-06-19T01:10:59;21.40;99.90
14061;DHT22;7105;43.616;1.434;2023-06-19T01:13:50;21.30;99.90
14061;DHT22;7105;43.616;1.434;2023-06-19T01:16:20;21.40;99.90
14061;DHT22;7105;43.616;1.434;2023-06-19T01:18:47;21.20;99.90
14061;DHT22;7105;43.616;1.434;2023-06-19T01:21:15;21.40;99.90
14061;DHT22;7105;43.616;1.434;2023-06-19T01:23:41;21.40;99.90
14061;DHT22;7105;43.616;1.434;2023-06-19T01:26:07;21.20;99.90
14061;DHT22;7105;43.616;1.434;2023-06-19T01:28:38;21.20;99.90
14061;DHT22;7105;43.616;1.434;2023-06-19T01:32:03;21.00;99.90
14061;DHT22;7105;43.616;1.434;2023-06-19T01:34:05;20.90;99.90
14061;DHT22;7105;43.616;1.434;2023-06-19T01:36:32;21.10;99.90
14061;DHT22;7105;43.616;1.434;2023-06-19T01:39:01;21.20;99.90
14061;DHT22;7105;43.616;1.434;2023-06-19T01:41:28;21.20;99.90
14061;DHT22;7105;43.616;1.434;2023-06-19T01:43:56;21.10;99.90
14061;DHT22;7105;43.616;1.434;2023-06-19T01:46:22;21.20;99.90
14061;DHT22;7105;43.616;1.434;2023-06-19T01:48:48;21.10;99.90
14061;DHT22;7105;43.616;1.434;2023-06-19T01:51:14;21.10;99.90
14061;DHT22;7105;43.616;1.434;2023-06-19T01:53:39;21.20;99.90
14061;DHT22;7105;43.616;1.434;2023-06-19T01:56:05;21.00;99.90
14061;DHT22;7105;43.616;1.434;2023-06-19T01:58:31;21.00;99.90
14061;DHT22;7105;43.616;1.434;2023-06-19T02:00:57;21.00;99.90
14061;DHT22;7105;43.616;1.434;2023-06-19T02:03:22;21.00;99.90
14061;DHT22;7105;43.616;1.434;2023-06-19T02:05:48;21.00;99.90
14061;DHT22;7105;43.616;1.434;2023-06-19T02:08:13;20.90;99.90
14061;DHT22;7105;43.616;1.434;2023-06-19T02:10:39;20.90;99.90
14061;DHT22;7105;43.616;1.434;2023-06-19T02:13:05;20.90;99.90
14061;DHT22;7105;43.616;1.434;2023-06-19T02:15:30;20.90;99.90
14061;DHT22;7105;43.616;1.434;2023-06-19T02:17:56;20.90;99.90
14061;DHT22;7105;43.616;1.434;2023-06-19T02:20:23;20.80;99.90
14061;DHT22;7105;43.616;1.434;2023-06-19T02:22:51;20.70;99.90
14061;DHT22;7105;43.616;1.434;2023-06-19T02:25:17;20.60;99.90
14061;DHT22;7105;43.616;1.434;2023-06-19T02:27:43;20.50;99.90
14061;DHT22;7105;43.616;1.434;2023-06-19T02:30:09;20.40;99.90
14061;DHT22;7105;43.616;1.434;2023-06-19T02:32:35;20.40;99.90
14061;DHT22;7105;43.616;1.434;2023-06-19T02:35:01;20.30;99.90
14061;DHT22;7105;43.616;1.434;2023-06-19T02:37:26;20.30;99.90
14061;DHT22;7105;43.616;1.434;2023-06-19T02:39:52;20.40;99.90
14061;DHT22;7105;43.616;1.434;2023-06-19T02:42:18;20.30;99.90
14061;DHT22;7105;43.616;1.434;2023-06-19T02:44:43;20.40;99.90
14061;DHT22;7105;43.616;1.434;2023-06-19T02:47:09;20.40;99.90
14061;DHT22;7105;43.616;1.434;2023-06-19T02:49:35;20.20;99.90
14061;DHT22;7105;43.616;1.434;2023-06-19T02:52:00;20.20;99.90
14061;DHT22;7105;43.616;1.434;2023-06-19T02:54:26;20.20;99.90
14061;DHT22;7105;43.616;1.434;2023-06-19T02:56:52;20.20;99.90
14061;DHT22;7105;43.616;1.434;2023-06-19T02:59:17;20.00;99.90
14061;DHT22;7105;43.616;1.434;2023-06-19T03:01:43;20.10;99.90
14061;DHT22;7105;43.616;1.434;2023-06-19T03:04:09;20.00;99.90
14061;DHT22;7105;43.616;1.434;2023-06-19T03:06:34;20.00;99.90
14061;DHT22;7105;43.616;1.434;2023-06-19T03:09:06;20.00;99.90
14061;DHT22;7105;43.616;1.434;2023-06-19T03:11:41;20.00;99.90
14061;DHT22;7105;43.616;1.434;2023-06-19T03:14:07;19.90;99.90
14061;DHT22;7105;43.616;1.434;2023-06-19T03:16:33;20.10;99.90
14061;DHT22;7105;43.616;1.434;2023-06-19T03:19:00;20.00;99.90
14061;DHT22;7105;43.616;1.434;2023-06-19T03:21:25;20.00;99.90
14061;DHT22;7105;43.616;1.434;2023-06-19T03:23:51;20.00;99.90
14061;DHT22;7105;43.616;1.434;2023-06-19T03:26:18;19.90;99.90
14061;DHT22;7105;43.616;1.434;2023-06-19T03:28:44;20.00;99.90
14061;DHT22;7105;43.616;1.434;2023-06-19T03:31:10;20.00;99.90
14061;DHT22;7105;43.616;1.434;2023-06-19T03:33:35;20.00;99.90
14061;DHT22;7105;43.616;1.434;2023-06-19T03:36:01;20.00;99.90
14061;DHT22;7105;43.616;1.434;2023-06-19T03:38:27;20.00;99.90
14061;DHT22;7105;43.616;1.434;2023-06-19T03:40:52;20.00;99.90
14061;DHT22;7105;43.616;1.434;2023-06-19T03:43:18;20.00;99.90
14061;DHT22;7105;43.616;1.434;2023-06-19T03:45:43;20.00;99.90
14061;DHT22;7105;43.616;1.434;2023-06-19T03:48:09;20.00;99.90
14061;DHT22;7105;43.616;1.434;2023-06-19T03:50:35;20.00;99.90
14061;DHT22;7105;43.616;1.434;2023-06-19T03:53:00;20.00;99.90
14061;DHT22;7105;43.616;1.434;2023-06-19T03:55:26;20.10;99.90
14061;DHT22;7105;43.616;1.434;2023-06-19T03:57:52;20.10;99.90
14061;DHT22;7105;43.616;1.434;2023-06-19T04:00:18;20.20;99.90
14061;DHT22;7105;43.616;1.434;2023-06-19T04:02:44;20.10;99.90
14061;DHT22;7105;43.616;1.434;2023-06-19T04:05:13;20.10;99.90
14061;DHT22;7105;43.616;1.434;2023-06-19T04:07:39;20.20;99.90
14061;DHT22;7105;43.616;1.434;2023-06-19T04:10:05;20.30;99.90
14061;DHT22;7105;43.616;1.434;2023-06-19T04:12:31;20.40;99.90
14061;DHT22;7105;43.616;1.434;2023-06-19T04:14:57;20.30;99.90
14061;DHT22;7105;43.616;1.434;2023-06-19T04:17:22;20.40;99.90
14061;DHT22;7105;43.616;1.434;2023-06-19T04:19:48;20.40;99.90
14061;DHT22;7105;43.616;1.434;2023-06-19T04:22:13;20.50;99.90
14061;DHT22;7105;43.616;1.434;2023-06-19T04:24:39;20.50;99.90
14061;DHT22;7105;43.616;1.434;2023-06-19T04:27:05;20.40;99.90
14061;DHT22;7105;43.616;1.434;2023-06-19T04:29:31;20.30;99.90
14061;DHT22;7105;43.616;1.434;2023-06-19T04:32:00;20.30;99.90
14061;DHT22;7105;43.616;1.434;2023-06-19T04:34:28;20.50;99.90
14061;DHT22;7105;43.616;1.434;2023-06-19T04:36:54;21.00;99.90
14061;DHT22;7105;43.616;1.434;2023-06-19T04:39:24;21.30;99.90
14061;DHT22;7105;43.616;1.434;2023-06-19T04:41:50;21.50;99.90
14061;DHT22;7105;43.616;1.434;2023-06-19T04:44:15;21.90;99.90
14061;DHT22;7105;43.616;1.434;2023-06-19T04:46:42;22.50;99.90
14061;DHT22;7105;43.616;1.434;2023-06-19T04:49:09;22.90;99.90
14061;DHT22;7105;43.616;1.434;2023-06-19T04:51:35;22.50;99.90
14061;DHT22;7105;43.616;1.434;2023-06-19T04:54:02;23.00;99.90
14061;DHT22;7105;43.616;1.434;2023-06-19T04:56:28;23.10;99.90
14061;DHT22;7105;43.616;1.434;2023-06-19T04:58:54;21.90;99.90
14061;DHT22;7105;43.616;1.434;2023-06-19T05:01:23;21.80;99.90
14061;DHT22;7105;43.616;1.434;2023-06-19T05:03:53;21.70;99.90
14061;DHT22;7105;43.616;1.434;2023-06-19T05:06:20;21.60;99.90
14061;DHT22;7105;43.616;1.434;2023-06-19T05:08:46;21.30;99.90
14061;DHT22;7105;43.616;1.434;2023-06-19T05:11:11;21.00;99.90
14061;DHT22;7105;43.616;1.434;2023-06-19T05:13:37;21.00;99.90
14061;DHT22;7105;43.616;1.434;2023-06-19T05:16:03;20.90;99.90
14061;DHT22;7105;43.616;1.434;2023-06-19T05:18:28;20.80;99.90
14061;DHT22;7105;43.616;1.434;2023-06-19T05:20:54;20.90;99.90
14061;DHT22;7105;43.616;1.434;2023-06-19T05:23:20;20.90;99.90
14061;DHT22;7105;43.616;1.434;2023-06-19T05:25:45;21.00;99.90
14061;DHT22;7105;43.616;1.434;2023-06-19T05:28:11;21.00;99.90
14061;DHT22;7105;43.616;1.434;2023-06-19T05:30:36;21.10;99.90
14061;DHT22;7105;43.616;1.434;2023-06-19T05:33:02;21.10;99.90
14061;DHT22;7105;43.616;1.434;2023-06-19T05:35:28;21.40;99.90
14061;DHT22;7105;43.616;1.434;2023-06-19T05:37:55;21.70;99.90
14061;DHT22;7105;43.616;1.434;2023-06-19T05:40:21;22.00;99.90
14061;DHT22;7105;43.616;1.434;2023-06-19T05:42:47;22.00;99.90
14061;DHT22;7105;43.616;1.434;2023-06-19T05:45:13;23.80;99.90
14061;DHT22;7105;43.616;1.434;2023-06-19T05:47:38;25.20;99.90
14061;DHT22;7105;43.616;1.434;2023-06-19T05:50:04;26.90;99.90
14061;DHT22;7105;43.616;1.434;2023-06-19T05:52:30;28.00;99.90
14061;DHT22;7105;43.616;1.434;2023-06-19T05:54:56;29.10;99.90
14061;DHT22;7105;43.616;1.434;2023-06-19T05:57:23;29.40;99.90
14061;DHT22;7105;43.616;1.434;2023-06-19T05:59:52;28.90;99.90
14061;DHT22;7105;43.616;1.434;2023-06-19T06:02:19;29.90;99.90
14061;DHT22;7105;43.616;1.434;2023-06-19T06:04:45;30.30;99.90
14061;DHT22;7105;43.616;1.434;2023-06-19T06:07:11;28.00;99.90
14061;DHT22;7105;43.616;1.434;2023-06-19T06:09:37;26.10;99.90
14061;DHT22;7105;43.616;1.434;2023-06-19T06:12:04;24.80;99.90
14061;DHT22;7105;43.616;1.434;2023-06-19T06:14:30;24.20;99.90
14061;DHT22;7105;43.616;1.434;2023-06-19T06:16:56;24.10;99.90
14061;DHT22;7105;43.616;1.434;2023-06-19T06:19:21;24.10;99.90
14061;DHT22;7105;43.616;1.434;2023-06-19T06:21:50;24.00;99.90
14061;DHT22;7105;43.616;1.434;2023-06-19T06:24:16;25.20;99.90
14061;DHT22;7105;43.616;1.434;2023-06-19T06:26:42;24.70;99.90
14061;DHT22;7105;43.616;1.434;2023-06-19T06:29:08;25.10;99.90
14061;DHT22;7105;43.616;1.434;2023-06-19T06:31:37;26.10;99.90
14061;DHT22;7105;43.616;1.434;2023-06-19T06:34:03;24.90;99.90
14061;DHT22;7105;43.616;1.434;2023-06-19T06:36:29;24.50;99.90
14061;DHT22;7105;43.616;1.434;2023-06-19T06:38:58;24.50;99.90
14061;DHT22;7105;43.616;1.434;2023-06-19T06:41:23;23.90;99.90
14061;DHT22;7105;43.616;1.434;2023-06-19T06:43:49;23.60;99.90
14061;DHT22;7105;43.616;1.434;2023-06-19T06:46:14;23.40;99.90
14061;DHT22;7105;43.616;1.434;2023-06-19T06:48:41;23.10;99.90
14061;DHT22;7105;43.616;1.434;2023-06-19T06:51:07;23.20;99.90
14061;DHT22;7105;43.616;1.434;2023-06-19T06:53:32;23.20;99.90
14061;DHT22;7105;43.616;1.434;2023-06-19T06:55:58;23.20;99.90
14061;DHT22;7105;43.616;1.434;2023-06-19T06:58:25;23.20;99.90
14061;DHT22;7105;43.616;1.434;2023-06-19T07:00:51;23.10;99.90
14061;DHT22;7105;43.616;1.434;2023-06-19T07:03:17;22.80;99.90
14061;DHT22;7105;43.616;1.434;2023-06-19T07:05:44;22.60;99.90
14061;DHT22;7105;43.616;1.434;2023-06-19T07:08:10;22.60;99.90
14061;DHT22;7105;43.616;1.434;2023-06-19T07:10:35;22.50;99.90
14061;DHT22;7105;43.616;1.434;2023-06-19T07:13:01;22.30;99.90
14061;DHT22;7105;43.616;1.434;2023-06-19T07:15:27;22.20;99.90
14061;DHT22;7105;43.616;1.434;2023-06-19T07:17:52;22.10;99.90
14061;DHT22;7105;43.616;1.434;2023-06-19T07:20:18;22.10;99.90
14061;DHT22;7105;43.616;1.434;2023-06-19T07:22:45;22.00;99.90
14061;DHT22;7105;43.616;1.434;2023-06-19T07:25:12;22.00;99.90
14061;DHT22;7105;43.616;1.434;2023-06-19T07:27:41;21.90;99.90
14061;DHT22;7105;43.616;1.434;2023-06-19T07:30:08;21.90;99.90
14061;DHT22;7105;43.616;1.434;2023-06-19T07:32:34;21.70;99.90
14061;DHT22;7105;43.616;1.434;2023-06-19T07:35:00;21.60;99.90
14061;DHT22;7105;43.616;1.434;2023-06-19T07:37:26;21.70;99.90
14061;DHT22;7105;43.616;1.434;2023-06-19T07:39:52;21.70;99.90
14061;DHT22;7105;43.616;1.434;2023-06-19T07:42:18;21.70;99.90
14061;DHT22;7105;43.616;1.434;2023-06-19T07:44:45;21.70;99.90
14061;DHT22;7105;43.616;1.434;2023-06-19T07:47:11;21.80;99.90
14061;DHT22;7105;43.616;1.434;2023-06-19T07:49:37;21.80;99.90
14061;DHT22;7105;43.616;1.434;2023-06-19T07:52:04;22.00;99.90
14061;DHT22;7105;43.616;1.434;2023-06-19T07:54:34;22.00;99.90
14061;DHT22;7105;43.616;1.434;2023-06-19T07:57:00;22.30;99.90
14061;DHT22;7105;43.616;1.434;2023-06-19T07:59:25;22.70;99.90
14061;DHT22;7105;43.616;1.434;2023-06-19T08:01:51;23.70;99.90
14061;DHT22;7105;43.616;1.434;2023-06-19T08:04:17;24.30;99.90
14061;DHT22;7105;43.616;1.434;2023-06-19T08:06:43;25.00;99.90
14061;DHT22;7105;43.616;1.434;2023-06-19T08:09:08;24.50;99.90
14061;DHT22;7105;43.616;1.434;2023-06-19T08:11:34;24.40;99.90
14061;DHT22;7105;43.616;1.434;2023-06-19T08:14:00;24.40;99.90
14061;DHT22;7105;43.616;1.434;2023-06-19T08:16:26;24.80;99.90
14061;DHT22;7105;43.616;1.434;2023-06-19T08:18:52;26.10;99.90
14061;DHT22;7105;43.616;1.434;2023-06-19T08:21:17;25.20;99.90
14061;DHT22;7105;43.616;1.434;2023-06-19T08:23:43;25.00;99.90
14061;DHT22;7105;43.616;1.434;2023-06-19T08:26:10;24.90;99.90
14061;DHT22;7105;43.616;1.434;2023-06-19T08:28:36;24.60;99.90
14061;DHT22;7105;43.616;1.434;2023-06-19T08:31:02;24.50;99.90
14061;DHT22;7105;43.616;1.434;2023-06-19T08:33:28;25.00;99.90
14061;DHT22;7105;43.616;1.434;2023-06-19T08:35:54;24.90;99.90
14061;DHT22;7105;43.616;1.434;2023-06-19T08:38:19;24.10;99.90
14061;DHT22;7105;43.616;1.434;2023-06-19T08:40:45;23.60;99.90
14061;DHT22;7105;43.616;1.434;2023-06-19T08:43:11;23.30;99.90
14061;DHT22;7105;43.616;1.434;2023-06-19T08:45:37;23.10;99.90
14061;DHT22;7105;43.616;1.434;2023-06-19T08:48:04;23.00;99.90
14061;DHT22;7105;43.616;1.434;2023-06-19T08:50:33;23.00;99.90
14061;DHT22;7105;43.616;1.434;2023-06-19T08:52:58;23.30;99.90
14061;DHT22;7105;43.616;1.434;2023-06-19T08:55:25;23.70;99.90
14061;DHT22;7105;43.616;1.434;2023-06-19T08:57:51;23.80;99.90
14061;DHT22;7105;43.616;1.434;2023-06-19T09:00:28;23.50;99.90
14061;DHT22;7105;43.616;1.434;2023-06-19T09:03:02;23.30;99.90
14061;DHT22;7105;43.616;1.434;2023-06-19T09:05:28;23.40;99.90
14061;DHT22;7105;43.616;1.434;2023-06-19T09:07:56;23.70;99.90
14061;DHT22;7105;43.616;1.434;2023-06-19T09:10:22;23.80;99.90
14061;DHT22;7105;43.616;1.434;2023-06-19T09:15:27;23.50;99.90
14061;DHT22;7105;43.616;1.434;2023-06-19T09:18:04;23.50;99.90
14061;DHT22;7105;43.616;1.434;2023-06-19T09:20:30;23.50;99.90
14061;DHT22;7105;43.616;1.434;2023-06-19T09:22:57;23.50;99.90
14061;DHT22;7105;43.616;1.434;2023-06-19T09:25:23;23.40;99.90
14061;DHT22;7105;43.616;1.434;2023-06-19T09:27:56;23.40;99.90
14061;DHT22;7105;43.616;1.434;2023-06-19T09:30:22;23.40;99.90
14061;DHT22;7105;43.616;1.434;2023-06-19T09:32:48;23.10;99.90
14061;DHT22;7105;43.616;1.434;2023-06-19T09:35:13;23.30;99.90
14061;DHT22;7105;43.616;1.434;2023-06-19T09:37:40;23.20;99.90
14061;DHT22;7105;43.616;1.434;2023-06-19T09:40:06;23.20;99.90
14061;DHT22;7105;43.616;1.434;2023-06-19T09:42:38;23.70;99.90
14061;DHT22;7105;43.616;1.434;2023-06-19T09:45:08;23.80;99.90
14061;DHT22;7105;43.616;1.434;2023-06-19T09:47:39;23.80;99.90
14061;DHT22;7105;43.616;1.434;2023-06-19T09:50:07;23.50;99.90
14061;DHT22;7105;43.616;1.434;2023-06-19T09:52:33;23.60;99.90
14061;DHT22;7105;43.616;1.434;2023-06-19T09:55:01;23.80;99.90
14061;DHT22;7105;43.616;1.434;2023-06-19T09:57:28;23.70;99.90
14061;DHT22;7105;43.616;1.434;2023-06-19T09:59:55;24.10;99.90
14061;DHT22;7105;43.616;1.434;2023-06-19T10:02:22;24.30;99.90
14061;DHT22;7105;43.616;1.434;2023-06-19T10:04:53;24.40;99.90
14061;DHT22;7105;43.616;1.434;2023-06-19T10:07:25;24.60;99.90
14061;DHT22;7105;43.616;1.434;2023-06-19T10:12:45;24.80;99.90
14061;DHT22;7105;43.616;1.434;2023-06-19T10:22:56;24.80;99.90
14061;DHT22;7105;43.616;1.434;2023-06-19T10:25:23;24.60;99.90
14061;DHT22;7105;43.616;1.434;2023-06-19T10:27:49;24.60;99.90
14061;DHT22;7105;43.616;1.434;2023-06-19T10:30:18;24.60;99.90
14061;DHT22;7105;43.616;1.434;2023-06-19T10:32:45;24.50;99.90
14061;DHT22;7105;43.616;1.434;2023-06-19T10:35:12;24.90;99.90
14061;DHT22;7105;43.616;1.434;2023-06-19T10:37:38;24.90;99.90
14061;DHT22;7105;43.616;1.434;2023-06-19T10:40:04;24.90;99.90
14061;DHT22;7105;43.616;1.434;2023-06-19T10:42:34;24.60;99.90
14061;DHT22;7105;43.616;1.434;2023-06-19T10:45:04;24.50;99.90
14061;DHT22;7105;43.616;1.434;2023-06-19T10:47:32;24.50;99.90
14061;DHT22;7105;43.616;1.434;2023-06-19T10:49:58;24.60;99.90
14061;DHT22;7105;43.616;1.434;2023-06-19T10:52:24;24.60;99.90
14061;DHT22;7105;43.616;1.434;2023-06-19T10:54:53;24.60;99.90
14061;DHT22;7105;43.616;1.434;2023-06-19T10:57:29;24.90;99.90
14061;DHT22;7105;43.616;1.434;2023-06-19T10:59:56;25.30;99.90
14061;DHT22;7105;43.616;1.434;2023-06-19T11:02:22;25.40;99.90
14061;DHT22;7105;43.616;1.434;2023-06-19T11:04:48;25.30;99.90
14061;DHT22;7105;43.616;1.434;2023-06-19T11:07:14;25.60;99.90
14061;DHT22;7105;43.616;1.434;2023-06-19T11:09:40;25.70;99.90
14061;DHT22;7105;43.616;1.434;2023-06-19T11:12:06;25.40;99.90
14061;DHT22;7105;43.616;1.434;2023-06-19T11:14:33;25.40;99.90
14061;DHT22;7105;43.616;1.434;2023-06-19T11:17:05;25.50;99.90
14061;DHT22;7105;43.616;1.434;2023-06-19T11:19:32;25.30;99.90
14061;DHT22;7105;43.616;1.434;2023-06-19T11:22:02;25.50;99.90
14061;DHT22;7105;43.616;1.434;2023-06-19T11:24:29;25.80;99.90
14061;DHT22;7105;43.616;1.434;2023-06-19T11:26:56;25.80;99.90
14061;DHT22;7105;43.616;1.434;2023-06-19T11:29:26;25.70;99.90
14061;DHT22;7105;43.616;1.434;2023-06-19T11:32:05;25.50;99.90
14061;DHT22;7105;43.616;1.434;2023-06-19T11:34:32;25.60;99.90
14061;DHT22;7105;43.616;1.434;2023-06-19T11:36:58;25.50;99.90
14061;DHT22;7105;43.616;1.434;2023-06-19T11:39:24;25.50;99.90
14061;DHT22;7105;43.616;1.434;2023-06-19T11:41:51;25.40;99.90
14061;DHT22;7105;43.616;1.434;2023-06-19T11:44:17;25.30;99.90
14061;DHT22;7105;43.616;1.434;2023-06-19T11:46:43;25.60;99.90
14061;DHT22;7105;43.616;1.434;2023-06-19T11:49:13;25.40;99.90
14061;DHT22;7105;43.616;1.434;2023-06-19T11:51:39;25.10;99.90
14061;DHT22;7105;43.616;1.434;2023-06-19T11:54:07;25.10;99.90
14061;DHT22;7105;43.616;1.434;2023-06-19T11:56:34;25.30;99.90
14061;DHT22;7105;43.616;1.434;2023-06-19T11:59:01;25.00;99.90
14061;DHT22;7105;43.616;1.434;2023-06-19T12:01:26;24.90;99.90
14061;DHT22;7105;43.616;1.434;2023-06-19T12:03:52;25.00;99.90
14061;DHT22;7105;43.616;1.434;2023-06-19T12:06:18;25.30;99.90
14061;DHT22;7105;43.616;1.434;2023-06-19T12:08:44;25.20;99.90
14061;DHT22;7105;43.616;1.434;2023-06-19T12:11:09;25.30;99.90
14061;DHT22;7105;43.616;1.434;2023-06-19T12:13:36;25.30;99.90
14061;DHT22;7105;43.616;1.434;2023-06-19T12:16:01;25.50;99.90
14061;DHT22;7105;43.616;1.434;2023-06-19T12:18:29;25.30;99.90
14061;DHT22;7105;43.616;1.434;2023-06-19T12:20:55;25.10;99.90
14061;DHT22;7105;43.616;1.434;2023-06-19T12:23:21;25.30;99.90
14061;DHT22;7105;43.616;1.434;2023-06-19T12:25:46;25.20;99.90
14061;DHT22;7105;43.616;1.434;2023-06-19T12:28:12;25.00;99.90
14061;DHT22;7105;43.616;1.434;2023-06-19T12:30:42;24.90;99.90
14061;DHT22;7105;43.616;1.434;2023-06-19T12:33:07;24.80;99.90
14061;DHT22;7105;43.616;1.434;2023-06-19T12:35:33;24.60;99.90
14061;DHT22;7105;43.616;1.434;2023-06-19T12:37:59;24.40;99.90
14061;DHT22;7105;43.616;1.434;2023-06-19T12:40:25;24.30;99.90
14061;DHT22;7105;43.616;1.434;2023-06-19T12:42:50;24.30;99.90
14061;DHT22;7105;43.616;1.434;2023-06-19T12:45:16;24.30;99.90
14061;DHT22;7105;43.616;1.434;2023-06-19T12:47:42;24.20;99.90
14061;DHT22;7105;43.616;1.434;2023-06-19T12:50:08;24.10;99.90
14061;DHT22;7105;43.616;1.434;2023-06-19T12:52:33;24.00;99.90
14061;DHT22;7105;43.616;1.434;2023-06-19T12:55:02;23.80;99.90
14061;DHT22;7105;43.616;1.434;2023-06-19T12:57:28;23.90;99.90
14061;DHT22;7105;43.616;1.434;2023-06-19T12:59:53;23.90;99.90
14061;DHT22;7105;43.616;1.434;2023-06-19T13:02:19;23.90;99.90
14061;DHT22;7105;43.616;1.434;2023-06-19T13:04:45;23.90;99.90
14061;DHT22;7105;43.616;1.434;2023-06-19T13:07:11;23.80;99.90
14061;DHT22;7105;43.616;1.434;2023-06-19T13:09:40;23.60;99.90
14061;DHT22;7105;43.616;1.434;2023-06-19T13:12:06;23.60;99.90
14061;DHT22;7105;43.616;1.434;2023-06-19T13:14:33;23.60;99.90
14061;DHT22;7105;43.616;1.434;2023-06-19T13:17:02;23.60;99.90
14061;DHT22;7105;43.616;1.434;2023-06-19T13:19:27;23.70;99.90
14061;DHT22;7105;43.616;1.434;2023-06-19T13:21:53;23.50;99.90
14061;DHT22;7105;43.616;1.434;2023-06-19T13:24:19;23.50;99.90
14061;DHT22;7105;43.616;1.434;2023-06-19T13:26:45;23.50;99.90
14061;DHT22;7105;43.616;1.434;2023-06-19T13:29:12;23.60;99.90
14061;DHT22;7105;43.616;1.434;2023-06-19T13:31:37;23.70;99.90
14061;DHT22;7105;43.616;1.434;2023-06-19T13:34:03;23.70;99.90
14061;DHT22;7105;43.616;1.434;2023-06-19T13:36:32;23.70;99.90
14061;DHT22;7105;43.616;1.434;2023-06-19T13:38:59;23.80;99.90
14061;DHT22;7105;43.616;1.434;2023-06-19T13:41:24;23.80;99.90
14061;DHT22;7105;43.616;1.434;2023-06-19T13:43:51;23.70;99.90
14061;DHT22;7105;43.616;1.434;2023-06-19T13:46:19;23.90;99.90
14061;DHT22;7105;43.616;1.434;2023-06-19T13:48:47;23.90;99.90
14061;DHT22;7105;43.616;1.434;2023-06-19T13:51:16;23.90;99.90
14061;DHT22;7105;43.616;1.434;2023-06-19T13:53:42;23.90;99.90
14061;DHT22;7105;43.616;1.434;2023-06-19T13:56:08;24.00;99.90
14061;DHT22;7105;43.616;1.434;2023-06-19T13:58:34;24.00;99.90
14061;DHT22;7105;43.616;1.434;2023-06-19T14:01:02;24.10;99.90
14061;DHT22;7105;43.616;1.434;2023-06-19T14:03:28;24.10;99.90
14061;DHT22;7105;43.616;1.434;2023-06-19T14:05:55;24.20;99.90
14061;DHT22;7105;43.616;1.434;2023-06-19T14:08:20;24.40;99.90
14061;DHT22;7105;43.616;1.434;2023-06-19T14:10:46;24.30;99.90
14061;DHT22;7105;43.616;1.434;2023-06-19T14:13:12;24.30;99.90
14061;DHT22;7105;43.616;1.434;2023-06-19T14:15:37;24.40;99.90
14061;DHT22;7105;43.616;1.434;2023-06-19T14:18:05;24.60;99.90
14061;DHT22;7105;43.616;1.434;2023-06-19T14:20:31;24.60;99.90
14061;DHT22;7105;43.616;1.434;2023-06-19T14:22:57;24.80;99.90
14061;DHT22;7105;43.616;1.434;2023-06-19T14:25:23;25.10;99.90
14061;DHT22;7105;43.616;1.434;2023-06-19T14:27:48;25.10;99.90
14061;DHT22;7105;43.616;1.434;2023-06-19T14:30:14;25.40;99.90
14061;DHT22;7105;43.616;1.434;2023-06-19T14:32:40;25.50;99.90
14061;DHT22;7105;43.616;1.434;2023-06-19T14:35:06;25.50;99.90
14061;DHT22;7105;43.616;1.434;2023-06-19T14:37:32;25.20;99.90
14061;DHT22;7105;43.616;1.434;2023-06-19T14:39:57;25.00;99.90
14061;DHT22;7105;43.616;1.434;2023-06-19T14:42:23;25.00;99.90
14061;DHT22;7105;43.616;1.434;2023-06-19T14:44:49;25.00;99.90
14061;DHT22;7105;43.616;1.434;2023-06-19T14:47:15;24.80;99.90
14061;DHT22;7105;43.616;1.434;2023-06-19T14:49:40;24.80;99.90
14061;DHT22;7105;43.616;1.434;2023-06-19T14:52:06;24.60;99.90
14061;DHT22;7105;43.616;1.434;2023-06-19T14:54:32;24.60;99.90
14061;DHT22;7105;43.616;1.434;2023-06-19T14:56:58;24.60;99.90
14061;DHT22;7105;43.616;1.434;2023-06-19T14:59:24;24.60;99.90
14061;DHT22;7105;43.616;1.434;2023-06-19T15:01:49;24.60;99.90
14061;DHT22;7105;43.616;1.434;2023-06-19T15:04:15;24.80;99.90
14061;DHT22;7105;43.616;1.434;2023-06-19T15:06:41;25.00;99.90
14061;DHT22;7105;43.616;1.434;2023-06-19T15:09:06;25.00;99.90
14061;DHT22;7105;43.616;1.434;2023-06-19T15:11:33;24.90;99.90
14061;DHT22;7105;43.616;1.434;2023-06-19T15:14:02;25.10;99.90
14061;DHT22;7105;43.616;1.434;2023-06-19T15:16:28;24.90;99.90
14061;DHT22;7105;43.616;1.434;2023-06-19T15:18:54;24.90;99.90
14061;DHT22;7105;43.616;1.434;2023-06-19T15:21:19;24.80;99.90
14061;DHT22;7105;43.616;1.434;2023-06-19T15:23:45;24.80;99.90
14061;DHT22;7105;43.616;1.434;2023-06-19T15:26:11;24.80;99.90
14061;DHT22;7105;43.616;1.434;2023-06-19T15:28:37;25.00;99.90
14061;DHT22;7105;43.616;1.434;2023-06-19T15:31:02;25.20;99.90
14061;DHT22;7105;43.616;1.434;2023-06-19T15:33:28;25.40;99.90
14061;DHT22;7105;43.616;1.434;2023-06-19T15:35:54;25.70;99.90
14061;DHT22;7105;43.616;1.434;2023-06-19T15:38:20;25.80;99.90
14061;DHT22;7105;43.616;1.434;2023-06-19T15:40:46;26.10;99.90
14061;DHT22;7105;43.616;1.434;2023-06-19T15:43:12;25.90;99.90
14061;DHT22;7105;43.616;1.434;2023-06-19T15:45:38;25.80;99.90
14061;DHT22;7105;43.616;1.434;2023-06-19T15:48:05;25.70;99.90
14061;DHT22;7105;43.616;1.434;2023-06-19T15:50:31;25.80;99.90
14061;DHT22;7105;43.616;1.434;2023-06-19T15:52:58;25.50;99.90
14061;DHT22;7105;43.616;1.434;2023-06-19T15:55:24;25.40;99.90
14061;DHT22;7105;43.616;1.434;2023-06-19T15:57:51;25.50;99.90